createdAt,value
2017-08-29T00:01:46.780Z,4.33
2017-08-29T00:04:13.924Z,4.47
2017-08-29T00:06:41.063Z,4.27
2017-08-29T00:09:08.215Z,3.43
2017-08-29T00:11:35.368Z,4.47
2017-08-29T00:14:02.516Z,4.90
2017-08-29T00:16:29.367Z,4.73
2017-08-29T00:18:56.503Z,3.90
2017-08-29T00:21:23.342Z,4.30
2017-08-29T00:23:50.171Z,4.37
2017-08-29T00:26:17.008Z,4.10
2017-08-29T00:28:44.087Z,4.30
2017-08-29T00:31:10.916Z,4.33
2017-08-29T00:33:37.847Z,4.33
2017-08-29T00:36:04.699Z,3.83
2017-08-29T00:38:31.583Z,4.10
2017-08-29T00:40:58.707Z,3.63
2017-08-29T00:43:25.859Z,4.00
2017-08-29T00:45:52.675Z,3.83
2017-08-29T00:48:19.499Z,3.60
2017-08-29T00:50:46.700Z,4.17
2017-08-29T00:53:13.531Z,3.87
2017-08-29T00:55:40.356Z,3.73
2017-08-29T00:58:07.427Z,3.00
2017-08-29T01:00:34.580Z,3.73
2017-08-29T01:03:01.423Z,3.40
2017-08-29T01:05:28.275Z,4.03
2017-08-29T01:07:55.083Z,3.33
2017-08-29T01:10:21.887Z,4.00
2017-08-29T01:12:48.739Z,3.03
2017-08-29T01:15:15.571Z,3.07
2017-08-29T01:17:42.380Z,3.60
2017-08-29T01:20:09.219Z,3.67
2017-08-29T01:22:36.375Z,3.57
2017-08-29T01:25:03.196Z,3.03
2017-08-29T01:27:30.366Z,3.27
2017-08-29T01:29:57.211Z,3.17
2017-08-29T01:32:24.015Z,3.43
2017-08-29T01:34:50.889Z,3.40
2017-08-29T01:37:17.723Z,2.90
2017-08-29T01:39:44.587Z,2.60
2017-08-29T01:42:11.455Z,2.60
2017-08-29T01:44:38.295Z,3.10
2017-08-29T01:47:05.103Z,3.00
2017-08-29T01:49:32.261Z,3.10
2017-08-29T01:51:59.107Z,3.10
2017-08-29T01:54:25.928Z,2.80
2017-08-29T01:56:52.763Z,2.97
2017-08-29T01:59:19.946Z,3.13
2017-08-29T02:01:46.769Z,2.63
2017-08-29T02:04:13.654Z,2.63
2017-08-29T02:06:40.515Z,2.90
2017-08-29T02:09:07.619Z,2.97
2017-08-29T02:11:34.724Z,2.43
2017-08-29T02:14:01.771Z,2.83
2017-08-29T02:16:28.874Z,2.40
2017-08-29T02:18:55.731Z,2.40
2017-08-29T02:21:22.864Z,2.80
2017-08-29T02:23:50.015Z,2.33
2017-08-29T02:26:16.842Z,2.80
2017-08-29T02:28:43.903Z,2.00
2017-08-29T02:31:10.723Z,2.43
2017-08-29T02:33:37.572Z,2.33
2017-08-29T02:36:04.422Z,2.43
2017-08-29T02:38:31.244Z,2.10
2017-08-29T02:40:58.071Z,2.07
2017-08-29T02:43:24.900Z,1.80
2017-08-29T02:45:52.011Z,2.00
2017-08-29T02:48:18.836Z,2.27
2017-08-29T02:50:45.648Z,3.10
2017-08-29T02:53:12.460Z,2.47
2017-08-29T02:55:39.332Z,2.10
2017-08-29T02:58:06.163Z,2.30
2017-08-29T03:00:32.955Z,2.17
2017-08-29T03:02:59.851Z,2.33
2017-08-29T03:05:26.927Z,2.23
2017-08-29T03:07:53.727Z,1.90
2017-08-29T03:10:20.789Z,2.17
2017-08-29T03:12:47.593Z,2.17
2017-08-29T03:15:14.743Z,2.27
2017-08-29T03:17:41.895Z,2.43
2017-08-29T03:20:09.043Z,2.10
2017-08-29T03:22:35.846Z,2.00
2017-08-29T03:25:02.734Z,2.27
2017-08-29T03:27:29.535Z,1.90
2017-08-29T03:29:56.359Z,1.90
2017-08-29T03:32:23.187Z,1.90
2017-08-29T03:34:50.005Z,2.10
2017-08-29T03:37:16.815Z,1.83
2017-08-29T03:39:43.655Z,1.57
2017-08-29T03:42:10.479Z,2.13
2017-08-29T03:44:37.319Z,2.10
2017-08-29T03:47:04.168Z,1.77
2017-08-29T03:49:31.000Z,2.20
2017-08-29T03:51:58.108Z,1.90
2017-08-29T03:54:25.253Z,1.40
2017-08-29T03:56:52.409Z,2.20
2017-08-29T03:59:19.203Z,1.83
2017-08-29T04:01:46.296Z,1.87
2017-08-29T04:04:13.115Z,1.53
2017-08-29T04:06:39.923Z,1.67
2017-08-29T04:09:07.031Z,1.60
2017-08-29T04:11:34.183Z,1.60
2017-08-29T04:14:01.020Z,1.70
2017-08-29T04:16:27.871Z,1.53
2017-08-29T04:18:54.919Z,1.93
2017-08-29T04:21:21.735Z,1.70
2017-08-29T04:23:48.564Z,2.07
2017-08-29T04:26:15.395Z,1.40
2017-08-29T04:28:42.239Z,1.60
2017-08-29T04:31:09.067Z,1.40
2017-08-29T04:33:35.876Z,1.90
2017-08-29T04:36:02.675Z,1.60
2017-08-29T04:38:29.523Z,1.70
2017-08-29T04:40:56.347Z,1.30
2017-08-29T04:43:23.218Z,1.70
2017-08-29T04:45:50.295Z,1.70
2017-08-29T04:48:17.127Z,1.47
2017-08-29T04:50:43.960Z,1.50
2017-08-29T04:53:10.812Z,1.70
2017-08-29T04:55:37.632Z,1.27
2017-08-29T04:58:04.718Z,1.77
2017-08-29T05:00:31.591Z,1.63
2017-08-29T05:02:58.708Z,1.37
2017-08-29T05:05:25.543Z,1.40
2017-08-29T05:07:52.407Z,1.50
2017-08-29T05:10:19.243Z,1.70
2017-08-29T05:12:46.103Z,1.40
2017-08-29T05:15:13.231Z,1.50
2017-08-29T05:17:40.051Z,1.70
2017-08-29T05:20:06.992Z,1.10
2017-08-29T05:22:33.837Z,1.10
2017-08-29T05:25:01.017Z,1.47
2017-08-29T05:27:27.829Z,1.73
2017-08-29T05:29:54.655Z,1.73
2017-08-29T05:32:21.743Z,1.67
2017-08-29T05:34:48.591Z,1.37
2017-08-29T05:37:15.808Z,1.60
2017-08-29T05:39:42.619Z,1.67
2017-08-29T05:42:09.424Z,1.40
2017-08-29T05:44:36.267Z,1.60
2017-08-29T05:47:03.104Z,1.40
2017-08-29T05:49:29.939Z,1.70
2017-08-29T05:51:56.765Z,1.50
2017-08-29T05:54:23.843Z,1.30
2017-08-29T05:56:50.660Z,1.50
2017-08-29T05:59:17.735Z,1.27
2017-08-29T06:01:44.571Z,1.30
2017-08-29T06:04:11.371Z,1.10
2017-08-29T06:06:38.203Z,1.20
2017-08-29T06:09:05.019Z,1.03
2017-08-29T06:11:31.860Z,1.30
2017-08-29T06:13:58.700Z,1.30
2017-08-29T06:16:25.743Z,1.03
2017-08-29T06:18:52.788Z,1.30
2017-08-29T06:21:19.648Z,1.53
2017-08-29T06:23:46.671Z,1.00
2017-08-29T06:26:13.726Z,1.30
2017-08-29T06:28:40.537Z,1.20
2017-08-29T06:31:07.610Z,1.07
2017-08-29T06:33:34.665Z,1.33
2017-08-29T06:36:01.512Z,1.33
2017-08-29T06:38:28.296Z,1.43
2017-08-29T06:43:33.071Z,1.50
2017-08-29T06:45:59.896Z,1.30
2017-08-29T06:48:26.720Z,1.50
2017-08-29T06:50:53.565Z,1.10
2017-08-29T06:53:20.367Z,1.10
2017-08-29T06:55:47.187Z,1.20
2017-08-29T06:58:14.439Z,1.30
2017-08-29T07:00:41.255Z,1.30
2017-08-29T07:03:08.075Z,1.40
2017-08-29T07:05:35.199Z,1.33
2017-08-29T07:08:02.029Z,1.20
2017-08-29T07:10:28.895Z,1.30
2017-08-29T07:12:56.035Z,1.13
2017-08-29T07:15:22.859Z,1.80
2017-08-29T07:17:49.657Z,2.10
2017-08-29T07:20:16.486Z,2.30
2017-08-29T07:22:43.301Z,2.20
2017-08-29T07:25:10.127Z,2.53
2017-08-29T07:27:36.979Z,2.28
2017-08-29T08:35:09.619Z,2.40
2017-08-29T09:21:49.264Z,2.73
2017-08-29T09:24:16.408Z,2.57
2017-08-29T09:26:43.558Z,4.40
2017-08-29T09:29:10.415Z,2.40
2017-08-29T09:31:37.220Z,2.03
2017-08-29T09:34:04.087Z,2.27
2017-08-29T09:36:30.911Z,2.00
2017-08-29T09:38:58.087Z,2.20
2017-08-29T09:41:25.144Z,2.30
2017-08-29T09:43:52.380Z,2.30
2017-08-29T09:46:19.449Z,3.13
2017-08-29T09:48:46.288Z,2.17
2017-08-29T09:51:13.148Z,2.20
2017-08-29T09:53:39.987Z,2.63
2017-08-29T09:56:06.807Z,2.80
2017-08-29T09:58:33.961Z,2.60
2017-08-29T10:01:00.812Z,3.07
2017-08-29T10:03:27.647Z,2.77
2017-08-29T10:05:54.788Z,2.40
2017-08-29T10:08:21.939Z,2.20
2017-08-29T10:10:49.093Z,2.03
2017-08-29T10:13:15.931Z,2.13
2017-08-29T10:15:43.086Z,1.77
2017-08-29T10:18:09.931Z,2.07
2017-08-29T10:20:36.775Z,2.20
2017-08-29T10:23:03.919Z,2.57
2017-08-29T10:25:31.069Z,1.97
2017-08-29T10:27:58.223Z,2.43
2017-08-29T10:30:25.052Z,1.90
2017-08-29T10:32:51.864Z,2.13
2017-08-29T10:35:19.060Z,2.20
2017-08-29T10:37:45.889Z,1.73
2017-08-29T10:40:12.692Z,2.33
2017-08-29T10:42:39.552Z,2.30
2017-08-29T10:45:06.391Z,2.80
2017-08-29T10:47:33.227Z,3.40
2017-08-29T10:50:00.129Z,2.10
2017-08-29T10:52:27.268Z,2.13
2017-08-29T10:54:54.103Z,2.60
2017-08-29T10:57:21.263Z,1.80
2017-08-29T10:59:48.110Z,2.10
2017-08-29T11:02:14.916Z,2.13
2017-08-29T11:04:41.772Z,3.67
2017-08-29T11:07:08.836Z,2.30
2017-08-29T11:09:35.664Z,1.80
2017-08-29T11:12:02.560Z,2.07
2017-08-29T11:14:29.358Z,2.00
2017-08-29T11:16:56.178Z,1.93
2017-08-29T11:19:23.255Z,2.50
2017-08-29T11:21:50.068Z,2.07
2017-08-29T11:24:17.151Z,2.00
2017-08-29T11:26:43.980Z,2.53
2017-08-29T11:29:10.817Z,2.60
2017-08-29T11:31:37.647Z,2.43
2017-08-29T11:34:04.722Z,2.53
2017-08-29T11:36:31.771Z,2.30
2017-08-29T11:38:58.925Z,2.40
2017-08-29T11:41:25.755Z,2.45
2017-08-29T11:43:52.592Z,2.58
2017-08-29T11:46:19.422Z,2.17
2017-08-29T11:48:46.275Z,2.20
2017-08-29T11:51:13.103Z,2.20
2017-08-29T11:53:39.934Z,2.35
2017-08-29T11:56:06.767Z,2.10
2017-08-29T11:58:34.081Z,2.67
2017-08-29T12:01:01.223Z,2.65
2017-08-29T12:03:28.104Z,2.42
2017-08-29T12:05:55.223Z,2.28
2017-08-29T12:08:22.059Z,2.42
2017-08-29T12:10:48.911Z,2.50
2017-08-29T12:13:16.059Z,3.15
2017-08-29T12:15:43.207Z,2.35
2017-08-29T12:18:10.536Z,2.08
2017-08-29T12:20:37.463Z,2.40
2017-08-29T12:23:04.300Z,2.60
2017-08-29T12:25:31.394Z,2.65
2017-08-29T12:27:58.227Z,2.83
2017-08-29T12:30:25.055Z,2.62
2017-08-29T12:32:51.915Z,3.35
2017-08-29T12:35:18.980Z,2.67
2017-08-29T12:37:46.134Z,2.25
2017-08-29T12:40:13.279Z,3.03
2017-08-29T12:42:40.108Z,2.72
2017-08-29T12:45:07.140Z,3.10
2017-08-29T12:47:34.011Z,4.07
2017-08-29T12:50:00.847Z,3.35
2017-08-29T12:52:27.899Z,3.60
2017-08-29T12:54:55.051Z,3.67
2017-08-29T12:57:22.215Z,3.80
2017-08-29T12:59:49.027Z,3.40
2017-08-29T13:02:15.856Z,3.53
2017-08-29T13:04:42.691Z,3.60
2017-08-29T13:07:09.731Z,3.33
2017-08-29T13:09:36.933Z,3.87
2017-08-29T13:12:03.739Z,4.10
2017-08-29T13:14:30.567Z,4.12
2017-08-29T13:16:57.396Z,3.90
2017-08-29T13:19:24.234Z,4.37
2017-08-29T13:21:51.039Z,4.25
2017-08-29T13:24:18.191Z,3.97
2017-08-29T13:26:45.015Z,4.68
2017-08-29T13:29:11.818Z,4.12
2017-08-29T13:31:38.939Z,3.92
2017-08-29T14:19:13.995Z,6.72
2017-08-29T16:06:29.891Z,6.87
2017-08-29T16:08:56.692Z,5.87
2017-08-29T16:20:10.027Z,6.20
2017-08-29T16:22:36.831Z,6.27
2017-08-29T16:25:03.654Z,6.60
2017-08-29T16:27:30.487Z,6.47
2017-08-29T16:29:57.312Z,6.37
2017-08-29T16:32:24.119Z,6.63
2017-08-29T16:34:50.992Z,10.90
2017-08-29T16:50:05.603Z,6.97
2017-08-29T17:15:31.547Z,6.67
2017-08-29T17:17:58.353Z,7.00
2017-08-29T17:20:25.560Z,6.60
2017-08-29T17:22:52.420Z,6.13
2017-08-29T17:25:19.252Z,7.10
2017-08-29T17:27:46.066Z,7.43
2017-08-29T17:30:13.184Z,6.97
2017-08-29T17:32:40.026Z,7.93
2017-08-29T17:35:07.139Z,9.23
2017-08-29T17:37:33.997Z,9.10
2017-08-29T17:40:00.860Z,9.17
2017-08-29T17:42:27.691Z,9.60
2017-08-29T17:44:54.543Z,10.37
2017-08-29T17:47:21.668Z,10.30
2017-08-29T17:49:48.711Z,9.00
2017-08-29T17:52:15.584Z,9.23
2017-08-29T17:54:42.402Z,10.83
2017-08-29T17:57:09.245Z,10.00
2017-08-29T17:59:36.108Z,13.27
2017-08-29T18:02:02.924Z,11.47
2017-08-29T18:04:30.084Z,12.00
2017-08-29T18:06:57.331Z,13.50
2017-08-29T18:09:24.148Z,11.47
2017-08-29T18:11:51.223Z,13.93
2017-08-29T18:14:18.103Z,10.40
2017-08-29T18:16:44.947Z,10.87
2017-08-29T18:19:11.772Z,10.87
2017-08-29T18:21:38.612Z,11.17
2017-08-29T18:24:05.748Z,11.03
2017-08-29T18:26:32.587Z,9.97
2017-08-29T18:28:59.468Z,10.90
2017-08-29T18:31:26.307Z,12.80
2017-08-29T18:33:53.422Z,12.40
2017-08-29T18:36:20.288Z,11.57
2017-08-29T18:38:47.129Z,11.20
2017-08-29T18:41:13.944Z,13.70
2017-08-29T18:43:40.798Z,12.80
2017-08-29T18:46:07.831Z,11.40
2017-08-29T18:48:34.655Z,10.47
2017-08-29T18:51:01.513Z,10.23
2017-08-29T18:53:28.583Z,10.30
2017-08-29T18:55:55.623Z,9.43
2017-08-29T18:58:22.471Z,10.43
2017-08-29T19:00:49.360Z,9.57
2017-08-29T19:03:16.467Z,10.03
2017-08-29T19:05:43.527Z,9.53
2017-08-29T19:08:10.351Z,9.23
2017-08-29T19:10:37.160Z,9.30
2017-08-29T19:13:03.999Z,8.87
2017-08-29T19:15:30.835Z,8.93
2017-08-29T19:17:57.643Z,9.47
2017-08-29T19:20:24.775Z,8.20
2017-08-29T19:22:51.607Z,9.23
2017-08-29T19:25:18.435Z,8.97
2017-08-29T19:27:45.327Z,25.67
2017-08-29T19:30:12.257Z,19.67
2017-08-29T19:32:39.091Z,14.23
2017-08-29T19:35:05.951Z,9.10
2017-08-29T19:37:32.777Z,9.57
2017-08-29T19:39:59.612Z,9.60
2017-08-29T19:42:26.781Z,9.60
2017-08-29T19:44:53.929Z,9.03
2017-08-29T19:47:20.763Z,9.80
2017-08-29T19:49:47.599Z,8.83
2017-08-29T19:52:14.667Z,8.60
2017-08-29T19:54:41.812Z,8.50
2017-08-29T19:57:08.965Z,8.30
2017-08-29T19:59:40.643Z,7.93
2017-08-29T20:02:07.496Z,8.53
2017-08-29T20:04:34.407Z,7.80
2017-08-29T20:07:01.225Z,7.90
2017-08-29T20:09:28.037Z,7.90
2017-08-29T20:11:54.875Z,8.70
2017-08-29T20:14:21.699Z,10.77
2017-08-29T20:16:48.520Z,8.27
2017-08-29T20:19:15.387Z,9.73
2017-08-29T20:21:42.244Z,9.33
2017-08-29T20:24:09.048Z,8.70
2017-08-29T20:26:36.199Z,7.23
2017-08-29T20:29:03.246Z,8.57
2017-08-29T20:31:30.118Z,8.53
2017-08-29T20:33:57.036Z,8.40
2017-08-29T20:36:24.189Z,8.37
